createdAt,value
2018-11-26T00:01:13.955Z,6.20
2018-11-26T00:03:42.094Z,6.20
2018-11-26T00:06:10.228Z,6.20
2018-11-26T00:08:38.340Z,6.20
2018-11-26T00:11:32.065Z,6.20
2018-11-26T00:14:00.175Z,6.30
2018-11-26T00:16:28.291Z,6.20
2018-11-26T00:18:56.391Z,6.20
2018-11-26T00:21:24.507Z,6.20
2018-11-26T00:23:52.686Z,6.20
2018-11-26T00:26:20.810Z,6.30
2018-11-26T00:28:48.938Z,6.30
2018-11-26T00:31:17.055Z,6.30
2018-11-26T00:33:45.193Z,6.30
2018-11-26T00:36:13.319Z,6.20
2018-11-26T00:38:41.415Z,6.30
2018-11-26T00:41:09.544Z,6.20
2018-11-26T00:43:37.654Z,6.20
2018-11-26T00:46:06.040Z,6.20
2018-11-26T00:48:34.142Z,6.20
2018-11-26T00:51:02.266Z,6.20
2018-11-26T00:53:30.375Z,6.30
2018-11-26T00:55:58.505Z,6.30
2018-11-26T00:58:26.611Z,6.30
2018-11-26T01:00:54.733Z,6.30
2018-11-26T01:03:22.844Z,6.20
2018-11-26T01:05:50.965Z,6.20
2018-11-26T01:08:19.064Z,6.20
2018-11-26T01:10:47.172Z,6.20
2018-11-26T01:13:15.280Z,6.20
2018-11-26T01:15:43.405Z,6.20
2018-11-26T01:18:11.517Z,6.20
2018-11-26T01:20:39.632Z,6.20
2018-11-26T01:23:07.752Z,6.20
2018-11-26T01:25:35.862Z,6.20
2018-11-26T01:28:03.993Z,6.20
2018-11-26T01:30:32.112Z,6.10
2018-11-26T01:33:00.245Z,6.20
2018-11-26T01:35:28.380Z,6.10
2018-11-26T01:37:56.521Z,6.10
2018-11-26T01:40:30.453Z,6.00
2018-11-26T01:42:58.585Z,6.00
2018-11-26T01:45:26.723Z,6.00
2018-11-26T01:47:54.859Z,6.00
2018-11-26T01:50:23.006Z,6.00
2018-11-26T01:52:51.111Z,6.00
2018-11-26T01:55:19.279Z,5.90
2018-11-26T01:57:47.404Z,5.80
2018-11-26T02:00:19.068Z,5.80
2018-11-26T02:02:47.231Z,5.80
2018-11-26T02:05:15.355Z,5.70
2018-11-26T02:07:43.495Z,5.90
2018-11-26T02:10:12.793Z,5.90
2018-11-26T02:12:40.962Z,5.90
2018-11-26T02:15:13.579Z,6.00
2018-11-26T02:17:41.739Z,6.00
2018-11-26T02:20:10.607Z,6.00
2018-11-26T02:22:38.736Z,6.00
2018-11-26T02:25:07.979Z,6.00
2018-11-26T02:27:36.319Z,6.00
2018-11-26T02:30:04.840Z,6.00
2018-11-26T02:32:32.958Z,6.00
2018-11-26T02:35:01.055Z,6.00
2018-11-26T02:37:29.176Z,6.00
2018-11-26T02:39:57.289Z,6.00
2018-11-26T02:42:25.420Z,6.00
2018-11-26T02:44:53.519Z,6.00
2018-11-26T02:47:21.623Z,5.90
2018-11-26T02:49:49.733Z,6.00
2018-11-26T02:52:17.857Z,5.90
2018-11-26T02:54:45.966Z,5.90
2018-11-26T02:57:14.101Z,6.00
2018-11-26T02:59:42.194Z,6.00
2018-11-26T03:02:10.299Z,6.00
2018-11-26T03:07:12.860Z,6.00
2018-11-26T03:09:40.981Z,6.00
2018-11-26T03:12:09.087Z,6.00
2018-11-26T03:14:37.198Z,6.00
2018-11-26T03:17:05.993Z,6.10
2018-11-26T03:19:34.101Z,6.10
2018-11-26T03:22:02.224Z,6.10
2018-11-26T03:24:30.361Z,6.00
2018-11-26T03:26:58.480Z,6.10
2018-11-26T03:29:33.551Z,6.10
2018-11-26T03:32:01.683Z,6.10
2018-11-26T03:34:29.810Z,6.10
2018-11-26T03:36:57.949Z,6.10
2018-11-26T03:39:26.067Z,6.10
2018-11-26T03:41:54.207Z,6.10
2018-11-26T03:44:22.345Z,6.10
2018-11-26T03:46:50.480Z,6.10
2018-11-26T03:49:18.621Z,6.10
2018-11-26T03:51:46.760Z,6.20
2018-11-26T03:54:14.922Z,6.10
2018-11-26T03:56:43.032Z,6.10
2018-11-26T03:59:11.167Z,6.10
2018-11-26T04:01:39.300Z,6.20
2018-11-26T04:04:07.461Z,6.20
2018-11-26T04:06:35.605Z,6.20
2018-11-26T04:09:04.133Z,6.20
2018-11-26T04:11:32.277Z,6.20
2018-11-26T04:14:00.403Z,6.30
2018-11-26T04:16:28.543Z,6.40
2018-11-26T04:18:56.677Z,6.40
2018-11-26T04:21:24.803Z,6.30
2018-11-26T04:23:53.333Z,6.40
2018-11-26T04:26:21.464Z,6.30
2018-11-26T04:28:49.597Z,6.30
2018-11-26T04:31:17.733Z,6.40
2018-11-26T04:33:45.879Z,6.40
2018-11-26T04:36:14.059Z,6.40
2018-11-26T04:38:42.203Z,6.30
2018-11-26T04:41:10.341Z,6.40
2018-11-26T04:43:38.485Z,6.30
2018-11-26T04:46:06.619Z,6.30
2018-11-26T04:48:34.746Z,6.30
2018-11-26T04:51:02.903Z,6.30
2018-11-26T04:53:31.038Z,6.30
2018-11-26T04:55:59.151Z,6.40
2018-11-26T04:58:27.292Z,6.30
2018-11-26T05:00:55.452Z,6.30
2018-11-26T05:03:23.577Z,6.30
2018-11-26T05:05:51.714Z,6.20
2018-11-26T05:08:19.864Z,6.20
2018-11-26T05:10:47.993Z,6.20
2018-11-26T05:13:16.127Z,6.10
2018-11-26T05:15:44.288Z,6.10
2018-11-26T05:18:12.425Z,6.10
2018-11-26T05:20:40.535Z,6.20
2018-11-26T05:23:11.767Z,6.20
2018-11-26T05:25:39.904Z,6.10
2018-11-26T05:28:08.054Z,6.10
2018-11-26T05:30:36.198Z,6.10
2018-11-26T05:33:04.341Z,6.10
2018-11-26T05:35:32.439Z,6.10
2018-11-26T05:38:00.567Z,6.00
2018-11-26T05:40:28.699Z,6.00
2018-11-26T05:42:56.800Z,6.00
2018-11-26T05:45:24.921Z,6.00
2018-11-26T05:47:53.045Z,6.00
2018-11-26T05:50:21.147Z,6.00
2018-11-26T05:52:49.268Z,6.00
2018-11-26T05:55:17.408Z,6.00
2018-11-26T05:57:46.367Z,5.90
2018-11-26T06:00:18.345Z,6.00
2018-11-26T06:02:46.472Z,6.00
2018-11-26T06:05:14.614Z,6.00
2018-11-26T06:07:42.734Z,5.90
2018-11-26T06:10:10.931Z,5.90
2018-11-26T06:12:39.043Z,5.90
2018-11-26T06:15:10.325Z,5.90
2018-11-26T06:17:38.448Z,5.80
2018-11-26T06:20:08.104Z,5.80
2018-11-26T06:22:36.199Z,5.80
2018-11-26T06:25:05.485Z,5.80
2018-11-26T06:27:33.590Z,5.70
2018-11-26T06:30:01.730Z,5.70
2018-11-26T06:32:29.849Z,5.70
2018-11-26T06:34:57.961Z,5.70
2018-11-26T06:37:26.071Z,5.80
2018-11-26T06:39:54.182Z,5.80
2018-11-26T06:42:22.288Z,5.80
2018-11-26T06:44:50.405Z,5.80
2018-11-26T06:47:18.503Z,5.80
2018-11-26T06:49:46.651Z,5.80
2018-11-26T06:52:14.841Z,5.80
2018-11-26T06:54:42.953Z,5.90
2018-11-26T06:57:11.047Z,5.90
2018-11-26T06:59:39.186Z,5.90
2018-11-26T07:02:07.287Z,5.90
2018-11-26T07:04:35.407Z,5.90
2018-11-26T07:07:03.512Z,5.90
2018-11-26T07:09:31.623Z,5.80
2018-11-26T07:11:59.725Z,5.80
2018-11-26T07:14:27.827Z,5.90
2018-11-26T07:16:55.943Z,5.90
2018-11-26T07:19:24.073Z,5.90
2018-11-26T07:21:52.177Z,5.90
2018-11-26T07:24:20.282Z,5.90
2018-11-26T07:26:48.397Z,6.00
2018-11-26T07:29:23.839Z,5.90
2018-11-26T07:31:44.653Z,6.00
2018-11-26T07:34:12.785Z,5.90
2018-11-26T07:36:40.898Z,5.90
2018-11-26T07:39:09.369Z,5.90
2018-11-26T07:41:44.151Z,5.80
2018-11-26T07:44:12.275Z,5.90
2018-11-26T07:46:40.391Z,5.80
2018-11-26T07:49:08.533Z,5.80
2018-11-26T07:51:36.651Z,5.90
2018-11-26T07:54:04.817Z,5.80
2018-11-26T07:56:32.929Z,5.80
2018-11-26T07:59:01.065Z,5.80
2018-11-26T08:01:29.624Z,5.80
2018-11-26T08:03:57.753Z,5.90
2018-11-26T08:06:25.875Z,5.90
2018-11-26T08:08:54.014Z,5.90
2018-11-26T08:11:22.137Z,5.90
2018-11-26T08:13:50.257Z,5.90
2018-11-26T08:16:18.405Z,6.00
2018-11-26T08:18:46.519Z,6.00
2018-11-26T08:21:14.659Z,6.10
2018-11-26T08:23:42.787Z,6.10
2018-11-26T08:26:10.909Z,6.10
2018-11-26T08:28:39.045Z,6.10
2018-11-26T08:31:07.185Z,6.10
2018-11-26T08:33:35.303Z,6.10
2018-11-26T08:37:08.536Z,6.80
2018-11-26T08:39:36.872Z,7.00
2018-11-26T08:42:09.252Z,6.80
2018-11-26T08:44:45.294Z,6.60
2018-11-26T08:47:18.807Z,6.50
2018-11-26T08:49:46.922Z,6.50
2018-11-26T08:52:15.040Z,6.40
2018-11-26T08:54:43.179Z,6.40
2018-11-26T08:57:11.313Z,6.40
2018-11-26T08:59:39.440Z,6.30
2018-11-26T09:02:10.555Z,6.30
2018-11-26T09:04:44.541Z,6.20
2018-11-26T09:07:12.684Z,6.30
2018-11-26T09:09:40.960Z,6.20
2018-11-26T09:12:09.097Z,6.20
2018-11-26T09:14:37.211Z,6.20
2018-11-26T09:17:05.381Z,6.20
2018-11-26T09:19:33.513Z,6.20
2018-11-26T09:22:01.653Z,6.20
2018-11-26T09:24:29.763Z,6.20
2018-11-26T09:26:57.894Z,6.30
2018-11-26T09:29:26.020Z,6.30
2018-11-26T09:31:54.160Z,6.30
2018-11-26T09:34:22.336Z,6.40
2018-11-26T09:36:50.480Z,6.40
2018-11-26T09:39:18.645Z,6.40
2018-11-26T09:41:46.785Z,6.40
2018-11-26T09:44:14.932Z,6.40
2018-11-26T09:46:43.041Z,6.40
2018-11-26T09:49:11.161Z,6.50
2018-11-26T09:51:42.279Z,6.50
2018-11-26T09:54:07.461Z,6.50
2018-11-26T09:56:35.582Z,6.40
2018-11-26T09:59:03.707Z,6.40
2018-11-26T10:01:31.828Z,6.40
2018-11-26T10:03:59.954Z,6.50
2018-11-26T10:06:28.091Z,6.50
2018-11-26T10:08:56.214Z,6.50
2018-11-26T10:11:24.336Z,6.50
2018-11-26T10:13:52.459Z,6.60
2018-11-26T10:16:20.604Z,6.50
2018-11-26T10:18:55.617Z,6.60
2018-11-26T10:21:23.735Z,6.60
2018-11-26T10:23:51.866Z,6.60
2018-11-26T10:26:20.006Z,6.60
2018-11-26T10:28:48.125Z,6.60
2018-11-26T10:31:16.256Z,6.70
2018-11-26T10:33:44.402Z,6.80
2018-11-26T10:36:12.519Z,6.80
2018-11-26T10:38:40.653Z,6.80
2018-11-26T10:41:08.789Z,6.80
2018-11-26T10:43:36.925Z,7.10
2018-11-26T10:46:05.060Z,7.00
2018-11-26T10:48:33.189Z,7.00
2018-11-26T10:51:01.331Z,6.90
2018-11-26T10:53:29.447Z,6.90
2018-11-26T10:55:57.580Z,6.90
2018-11-26T10:58:25.709Z,6.90
2018-11-26T11:00:57.702Z,6.80
2018-11-26T11:03:25.911Z,6.80
2018-11-26T11:05:54.106Z,6.80
2018-11-26T11:08:22.253Z,6.90
2018-11-26T11:10:50.399Z,6.90
2018-11-26T11:13:18.526Z,6.90
2018-11-26T11:15:46.660Z,7.00
2018-11-26T11:18:14.792Z,7.00
2018-11-26T11:20:42.942Z,7.00
2018-11-26T11:23:11.063Z,7.00
2018-11-26T11:25:39.191Z,7.00
2018-11-26T11:28:07.492Z,7.00
2018-11-26T11:30:35.614Z,7.00
2018-11-26T11:35:31.145Z,6.90
2018-11-26T11:37:59.299Z,7.00
2018-11-26T11:40:29.133Z,7.00
2018-11-26T11:42:57.988Z,7.00
2018-11-26T11:45:26.781Z,7.00
2018-11-26T11:47:54.930Z,7.00
2018-11-26T11:50:23.074Z,7.10
2018-11-26T11:52:51.554Z,7.00
2018-11-26T11:55:20.697Z,7.00
2018-11-26T11:57:48.859Z,7.00
2018-11-26T12:00:30.814Z,7.00
2018-11-26T12:02:59.567Z,8.50
2018-11-26T12:05:27.696Z,8.20
2018-11-26T12:07:55.850Z,8.00
2018-11-26T12:10:23.980Z,7.70
2018-11-26T12:12:52.132Z,7.50
2018-11-26T12:15:20.435Z,7.40
2018-11-26T12:17:49.021Z,7.30
2018-11-26T12:20:17.149Z,7.20
2018-11-26T12:22:45.513Z,7.20
2018-11-26T12:25:14.872Z,7.20
2018-11-26T12:27:43.032Z,7.20
2018-11-26T12:30:27.326Z,8.10
2018-11-26T12:32:55.469Z,9.40
2018-11-26T12:35:23.605Z,8.90
2018-11-26T12:37:52.093Z,8.50
2018-11-26T12:40:22.382Z,8.20
2018-11-26T12:42:51.914Z,8.00
2018-11-26T12:45:23.144Z,7.80
2018-11-26T12:47:51.306Z,8.20
2018-11-26T12:50:19.466Z,8.00
2018-11-26T12:52:47.693Z,7.90
2018-11-26T12:55:16.875Z,7.80
2018-11-26T12:57:45.924Z,7.70
2018-11-26T13:00:16.157Z,7.60
2018-11-26T13:02:45.245Z,7.50
2018-11-26T13:05:15.698Z,7.60
2018-11-26T13:07:44.109Z,7.50
2018-11-26T13:10:15.429Z,7.40
2018-11-26T13:12:43.893Z,7.30
2018-11-26T13:15:17.226Z,7.20
2018-11-26T13:17:45.443Z,7.30
2018-11-26T13:20:14.536Z,7.40
2018-11-26T13:22:42.924Z,7.30
2018-11-26T13:25:13.150Z,7.40
2018-11-26T13:27:42.544Z,7.30
2018-11-26T13:30:12.869Z,7.30
2018-11-26T13:32:40.984Z,7.30
2018-11-26T13:35:11.056Z,7.40
2018-11-26T13:37:39.192Z,7.40
2018-11-26T13:40:09.458Z,7.40
2018-11-26T13:42:37.851Z,7.40
2018-11-26T13:45:08.158Z,7.40
2018-11-26T13:47:36.279Z,7.40
2018-11-26T13:50:05.227Z,7.40
2018-11-26T13:52:33.342Z,7.40
2018-11-26T13:55:01.462Z,7.40
2018-11-26T13:57:29.585Z,7.30
2018-11-26T13:59:57.693Z,7.30
2018-11-26T14:02:25.801Z,7.30
2018-11-26T14:04:53.916Z,7.30
2018-11-26T14:07:22.035Z,7.20
2018-11-26T14:09:50.152Z,7.20
2018-11-26T14:12:18.248Z,7.20
2018-11-26T14:14:46.366Z,7.20
2018-11-26T14:17:14.495Z,7.10
2018-11-26T14:19:42.613Z,7.10
2018-11-26T14:22:10.737Z,7.10
2018-11-26T14:24:38.875Z,7.10
2018-11-26T14:27:06.989Z,7.10
2018-11-26T14:29:35.106Z,7.10
2018-11-26T14:32:03.607Z,7.00
2018-11-26T14:34:31.409Z,7.00
2018-11-26T14:36:59.521Z,6.90
2018-11-26T14:39:27.659Z,6.90
2018-11-26T14:41:55.795Z,6.90
2018-11-26T14:44:23.930Z,6.80
2018-11-26T14:46:52.062Z,6.80
2018-11-26T14:49:20.196Z,6.80
2018-11-26T14:51:48.324Z,6.80
2018-11-26T14:54:16.465Z,6.70
2018-11-26T14:56:44.593Z,6.70
2018-11-26T14:59:12.733Z,6.70
2018-11-26T15:01:40.875Z,6.70
2018-11-26T15:04:09.019Z,6.70
2018-11-26T15:06:37.132Z,6.70
2018-11-26T15:09:08.252Z,6.70
2018-11-26T15:11:36.450Z,6.70
2018-11-26T15:14:05.521Z,6.60
2018-11-26T15:16:33.637Z,6.60
2018-11-26T15:19:01.821Z,6.50
2018-11-26T15:21:29.902Z,6.60
2018-11-26T15:23:58.024Z,6.60
2018-11-26T15:26:26.154Z,6.50
2018-11-26T15:28:54.289Z,6.50
2018-11-26T15:31:22.412Z,6.50
2018-11-26T15:33:50.546Z,6.50
2018-11-26T15:36:18.673Z,6.50
2018-11-26T15:38:46.802Z,6.40
2018-11-26T15:41:14.941Z,6.40
2018-11-26T15:43:43.069Z,6.40
2018-11-26T15:46:11.224Z,6.40
2018-11-26T15:48:39.510Z,6.40
2018-11-26T15:51:07.651Z,6.40
2018-11-26T15:53:35.793Z,6.40
2018-11-26T15:56:03.922Z,6.40
2018-11-26T15:58:32.048Z,6.30
2018-11-26T16:01:00.189Z,6.30
2018-11-26T16:03:28.318Z,6.30
2018-11-26T16:05:56.475Z,6.30
2018-11-26T16:08:24.598Z,6.30
2018-11-26T16:10:52.725Z,6.30
2018-11-26T16:13:21.003Z,6.20
2018-11-26T16:15:49.161Z,6.20
2018-11-26T16:18:19.610Z,6.20
2018-11-26T16:20:48.182Z,6.20
2018-11-26T16:23:16.373Z,6.20
2018-11-26T16:25:45.965Z,6.20
2018-11-26T16:28:17.728Z,6.20
2018-11-26T16:30:45.850Z,6.10
2018-11-26T16:33:13.982Z,6.10
2018-11-26T16:35:42.138Z,6.20
2018-11-26T16:38:11.123Z,6.10
2018-11-26T16:40:39.219Z,6.00
2018-11-26T16:43:07.769Z,6.00
2018-11-26T16:45:35.877Z,6.00
2018-11-26T16:48:04.028Z,6.00
2018-11-26T16:50:33.231Z,6.00
2018-11-26T16:53:01.414Z,6.00
2018-11-26T16:55:29.531Z,6.00
2018-11-26T16:57:57.642Z,5.90
2018-11-26T17:00:27.052Z,5.90
2018-11-26T17:02:56.350Z,5.90
2018-11-26T17:05:26.880Z,5.90
2018-11-26T17:07:55.031Z,5.90
2018-11-26T17:10:23.137Z,5.90
2018-11-26T17:12:51.281Z,5.90
2018-11-26T17:15:19.390Z,5.80
2018-11-26T17:17:47.559Z,5.80
2018-11-26T17:20:16.481Z,5.70
2018-11-26T17:22:44.760Z,5.70
2018-11-26T17:25:14.164Z,5.60
2018-11-26T17:27:42.952Z,5.60
2018-11-26T17:30:20.042Z,5.50
2018-11-26T17:32:49.504Z,5.50
2018-11-26T17:35:17.715Z,5.40
2018-11-26T17:37:45.816Z,5.40
2018-11-26T17:40:17.227Z,5.40
2018-11-26T17:42:45.334Z,5.40
2018-11-26T17:45:14.196Z,5.30
2018-11-26T17:47:44.463Z,5.30
2018-11-26T17:50:14.208Z,5.30
2018-11-26T17:52:42.324Z,5.30
2018-11-26T17:55:10.607Z,5.30
2018-11-26T17:57:38.750Z,5.30
2018-11-26T18:00:10.936Z,5.30
2018-11-26T18:02:39.049Z,5.30
2018-11-26T18:05:12.166Z,5.20
2018-11-26T18:07:40.310Z,5.30
2018-11-26T18:10:10.761Z,5.20
2018-11-26T18:12:38.874Z,5.20
2018-11-26T18:15:16.108Z,5.20
2018-11-26T18:17:45.246Z,5.10
2018-11-26T18:20:16.762Z,5.10
2018-11-26T18:22:46.058Z,5.10
2018-11-26T18:25:14.733Z,5.10
2018-11-26T18:27:45.677Z,5.10
2018-11-26T18:30:15.398Z,5.20
2018-11-26T18:32:43.496Z,5.30
2018-11-26T18:35:11.625Z,5.30
2018-11-26T18:37:39.722Z,5.30
2018-11-26T18:40:11.482Z,5.30
2018-11-26T18:42:39.579Z,5.30
2018-11-26T18:45:10.119Z,5.30
2018-11-26T18:47:38.231Z,5.30
2018-11-26T18:50:10.726Z,5.30
2018-11-26T18:52:38.839Z,5.30
2018-11-26T18:55:08.235Z,5.20
2018-11-26T18:57:36.333Z,5.20
2018-11-26T19:00:40.946Z,5.20
2018-11-26T19:03:09.041Z,5.20
2018-11-26T19:05:37.159Z,5.30
2018-11-26T19:08:05.525Z,5.20
2018-11-26T19:10:35.544Z,5.30
2018-11-26T19:13:16.110Z,5.20
2018-11-26T19:15:45.917Z,5.20
2018-11-26T19:18:24.272Z,5.20
2018-11-26T19:20:52.814Z,5.20
2018-11-26T19:23:21.098Z,5.20
2018-11-26T19:25:50.398Z,5.20
2018-11-26T19:28:20.465Z,5.20
2018-11-26T19:30:46.607Z,5.20
2018-11-26T19:33:16.337Z,5.20
2018-11-26T19:35:44.444Z,5.10
2018-11-26T19:38:12.569Z,5.10
2018-11-26T19:40:41.091Z,5.10
2018-11-26T19:43:09.304Z,5.00
2018-11-26T19:45:37.950Z,5.00
2018-11-26T19:48:06.997Z,5.10
2018-11-26T19:50:35.464Z,5.10
2018-11-26T19:53:04.167Z,5.10
2018-11-26T19:55:32.303Z,5.00
2018-11-26T19:58:00.426Z,5.00
2018-11-26T20:00:29.805Z,5.10
2018-11-26T20:03:11.549Z,5.10
2018-11-26T20:05:47.651Z,5.10
2018-11-26T20:08:15.879Z,5.10
2018-11-26T20:10:43.968Z,5.10
2018-11-26T20:13:12.110Z,5.10
2018-11-26T20:15:40.234Z,5.10
2018-11-26T20:18:08.520Z,5.10
2018-11-26T20:20:36.651Z,5.10
2018-11-26T20:23:04.765Z,5.00
2018-11-26T20:25:32.899Z,5.00
2018-11-26T20:28:01.038Z,5.00
2018-11-26T20:30:29.192Z,5.00
2018-11-26T20:32:58.262Z,5.00
2018-11-26T20:35:26.367Z,5.00
2018-11-26T20:37:54.487Z,5.00
2018-11-26T20:40:22.577Z,5.00
2018-11-26T20:42:52.991Z,5.00
2018-11-26T20:45:21.146Z,5.00
2018-11-26T20:47:50.151Z,5.00
2018-11-26T20:50:33.241Z,5.00
2018-11-26T20:53:01.386Z,5.00
2018-11-26T20:55:29.492Z,4.90
2018-11-26T20:57:57.647Z,4.90
2018-11-26T21:00:28.659Z,4.90
2018-11-26T21:03:03.548Z,4.90
2018-11-26T21:05:31.662Z,4.90
2018-11-26T21:07:59.790Z,4.90
2018-11-26T21:10:27.883Z,4.90
2018-11-26T21:12:55.988Z,4.90
2018-11-26T21:15:24.124Z,4.90
2018-11-26T21:17:53.134Z,5.00
2018-11-26T21:20:31.443Z,5.00
2018-11-26T21:22:59.557Z,5.00
2018-11-26T21:25:27.659Z,5.00
2018-11-26T21:27:55.860Z,5.00
2018-11-26T21:30:23.956Z,5.00
2018-11-26T21:32:52.105Z,5.00
2018-11-26T21:35:20.247Z,5.00
2018-11-26T21:37:49.817Z,5.00
2018-11-26T21:40:20.655Z,5.10
2018-11-26T21:42:48.645Z,5.10
2018-11-26T21:45:23.131Z,5.10
2018-11-26T21:47:51.228Z,5.10
2018-11-26T21:50:19.331Z,5.10
2018-11-26T21:52:47.442Z,5.10
2018-11-26T21:55:16.686Z,5.10
2018-11-26T21:57:46.028Z,5.10
2018-11-26T22:00:20.532Z,5.10
2018-11-26T22:02:48.977Z,5.00
2018-11-26T22:05:17.735Z,5.00
2018-11-26T22:07:45.967Z,5.00
2018-11-26T22:10:15.351Z,5.00
2018-11-26T22:12:44.857Z,5.00
2018-11-26T22:15:13.569Z,4.90
2018-11-26T22:17:41.994Z,5.00
2018-11-26T22:20:15.594Z,5.00
2018-11-26T22:22:43.718Z,5.00
2018-11-26T22:25:12.281Z,5.00
2018-11-26T22:27:40.420Z,5.00
2018-11-26T22:30:16.989Z,5.00
2018-11-26T22:32:45.269Z,5.00
2018-11-26T22:35:13.398Z,5.00
2018-11-26T22:37:41.530Z,5.10
2018-11-26T22:40:12.554Z,5.10
2018-11-26T22:42:41.053Z,5.00
2018-11-26T22:45:13.927Z,5.00
2018-11-26T22:47:42.612Z,5.00
2018-11-26T22:50:12.324Z,5.00
2018-11-26T22:52:40.557Z,5.00
2018-11-26T22:55:11.928Z,5.00
2018-11-26T22:57:40.424Z,5.00
2018-11-26T23:00:25.737Z,5.00
2018-11-26T23:02:57.877Z,5.00
2018-11-26T23:05:26.010Z,5.00
2018-11-26T23:07:54.181Z,5.00
2018-11-26T23:10:22.292Z,5.00
2018-11-26T23:12:50.456Z,5.10
2018-11-26T23:15:18.974Z,5.10
2018-11-26T23:17:47.907Z,5.20
2018-11-26T23:20:18.114Z,5.20
2018-11-26T23:22:46.320Z,5.20
2018-11-26T23:25:15.501Z,5.10
2018-11-26T23:27:43.746Z,5.00
2018-11-26T23:30:18.401Z,5.00
2018-11-26T23:32:56.619Z,5.00
2018-11-26T23:35:24.751Z,5.00
2018-11-26T23:37:52.862Z,5.00
2018-11-26T23:40:20.968Z,5.00
2018-11-26T23:42:49.084Z,5.00
2018-11-26T23:45:18.337Z,5.00
2018-11-26T23:47:46.954Z,5.00
2018-11-26T23:50:15.858Z,5.00
2018-11-26T23:52:44.221Z,5.00
2018-11-26T23:55:17.380Z,5.00
2018-11-26T23:57:45.489Z,5.00
